»·PEaware :: N426RB KSNA-KRNM

N426RB :: KSNA-KRNM

FLIGHT INFORMATION

Flight Status: Arrived
Operator: Privately registered:
United States
More flights under this callsign
Pilot: Steve L. (17268)
Aircraft: CESSNA 172 SKYHAWK
(C172)
More flights by this aircraft type
Origin: KSNA John Wayne-Orange Co
United States
Destination: KRNM Ramona
United States
More flights between these airports :: More routes between these airports
Route: +V23 OCN V208 JLI
File this flight plan on PilotEdge
Remarks:
Altitude:
(Current/Filed)
4,000ft
Speed:
(Current/Filed)
110kts
Departed: 21-Oct-20 11:23 AM
Arrived: 21-Oct-20 11:59 AM
Distance/Time
Traveled:
61nm/0:36
Distance/Time
To Go:
Arrived

Flight Plot

Page will automatically refresh every two minutes.


Map Options




Map Legend


Flown Route
Filed Route
Departure Airport
Arrival Airport
Navaid (VOR, NDB)
Fix

Horizontal Profiles

Position Reports

Time Latitude Longitude Heading Altitude Ground
Speed
21-Oct-20 10:40 33.676080 -117.870909 219 60ft 0kts
21-Oct-20 10:41 33.676080 -117.870909 219 60ft 0kts
21-Oct-20 10:42 33.676080 -117.870909 219 60ft 0kts
21-Oct-20 10:43 33.676080 -117.870909 219 60ft 0kts
21-Oct-20 10:44 33.676080 -117.870909 219 60ft 0kts
21-Oct-20 10:45 33.676080 -117.870909 219 60ft 0kts
21-Oct-20 10:46 33.676080 -117.870909 219 60ft 0kts
21-Oct-20 10:47 33.676080 -117.870909 219 60ft 0kts
21-Oct-20 10:48 33.676080 -117.870909 219 60ft 0kts
21-Oct-20 10:49 33.676080 -117.870909 219 60ft 0kts
21-Oct-20 10:50 33.676080 -117.870909 219 60ft 0kts
21-Oct-20 10:51 33.676080 -117.870909 219 60ft 0kts
21-Oct-20 10:52 33.676080 -117.870909 219 60ft 0kts
21-Oct-20 10:53 33.676080 -117.870909 219 60ft 0kts
21-Oct-20 10:54 33.676080 -117.870909 219 60ft 0kts
21-Oct-20 10:55 33.676080 -117.870909 219 60ft 0kts
21-Oct-20 10:56 33.676080 -117.870909 219 60ft 0kts
21-Oct-20 10:57 33.676080 -117.870909 219 60ft 0kts
21-Oct-20 10:58 33.676080 -117.870909 219 60ft 0kts
21-Oct-20 10:59 33.676080 -117.870909 219 60ft 0kts
21-Oct-20 11:00 33.676080 -117.870909 219 60ft 0kts
21-Oct-20 11:01 33.676080 -117.870909 219 60ft 0kts
21-Oct-20 11:02 33.676080 -117.870909 219 60ft 0kts
21-Oct-20 11:03 33.676080 -117.870909 219 60ft 0kts
21-Oct-20 11:04 33.676080 -117.870909 219 60ft 0kts
21-Oct-20 11:05 33.676080 -117.870909 219 60ft 0kts
21-Oct-20 11:06 33.676080 -117.870909 219 60ft 0kts
21-Oct-20 11:07 33.676080 -117.870909 219 60ft 0kts
21-Oct-20 11:08 33.676080 -117.870909 219 60ft 0kts
21-Oct-20 11:09 33.676080 -117.870909 219 60ft 0kts
21-Oct-20 11:10 33.676080 -117.870909 219 60ft 0kts
21-Oct-20 11:11 33.676080 -117.870909 219 60ft 0kts
21-Oct-20 11:12 33.676080 -117.870909 219 60ft 0kts
21-Oct-20 11:13 33.676080 -117.870909 219 60ft 0kts
21-Oct-20 11:14 33.676080 -117.870909 219 60ft 0kts
21-Oct-20 11:15 33.676080 -117.870909 219 60ft 0kts
21-Oct-20 11:16 33.676080 -117.870909 219 60ft 0kts
21-Oct-20 11:17 33.676080 -117.870909 219 60ft 0kts
21-Oct-20 11:18 33.677571 -117.869135 26 60ft 18kts
21-Oct-20 11:19 33.681241 -117.866816 74 60ft 11kts
21-Oct-20 11:20 33.681218 -117.866450 112 60ft 0kts
21-Oct-20 11:21 33.681218 -117.866450 112 60ft 0kts
21-Oct-20 11:22 33.667862 -117.874109 204 447ft 83kts
21-Oct-20 11:23 33.642858 -117.881264 186 1463ft 84kts
21-Oct-20 11:24 33.618444 -117.884027 186 2340ft 86kts
21-Oct-20 11:25 33.593163 -117.885722 173 3195ft 87kts
21-Oct-20 11:26 33.584097 -117.856667 101 3961ft 94kts
21-Oct-20 11:27 33.578280 -117.825147 123 4651ft 94kts
21-Oct-20 11:28 33.562177 -117.800825 137 5305ft 92kts
21-Oct-20 11:29 33.543563 -117.778405 138 5844ft 98kts
21-Oct-20 11:30 33.521427 -117.752161 138 5994ft 119kts
21-Oct-20 11:31 33.499425 -117.726191 138 6511ft 103kts
21-Oct-20 11:32 33.478117 -117.701213 138 6951ft 108kts
21-Oct-20 11:33 33.453418 -117.672694 138 6991ft 125kts
21-Oct-20 11:34 33.426951 -117.642629 138 7003ft 128kts
21-Oct-20 11:35 33.400351 -117.612546 136 6983ft 130kts
21-Oct-20 11:36 33.374289 -117.581425 136 6987ft 129kts
21-Oct-20 11:37 33.348808 -117.550992 136 6990ft 129kts
21-Oct-20 11:38 33.323284 -117.520504 136 6994ft 129kts
21-Oct-20 11:39 33.298046 -117.489759 133 6999ft 129kts
21-Oct-20 11:40 33.273256 -117.458280 135 7004ft 129kts
21-Oct-20 11:41 33.247968 -117.426859 135 7015ft 128kts
21-Oct-20 11:42 33.236454 -117.386618 100 7049ft 128kts
21-Oct-20 11:43 33.230847 -117.342253 100 6938ft 132kts
21-Oct-20 11:44 33.226296 -117.299247 98 6955ft 129kts
21-Oct-20 11:45 33.221963 -117.256487 99 6967ft 129kts
21-Oct-20 11:46 33.216970 -117.214182 99 6998ft 128kts
21-Oct-20 11:47 33.214594 -117.171960 90 7017ft 128kts
21-Oct-20 11:48 33.205119 -117.127055 108 6253ft 132kts
21-Oct-20 11:49 33.195357 -117.087782 107 6001ft 109kts
21-Oct-20 11:50 33.185572 -117.050959 112 6015ft 115kts
21-Oct-20 11:51 33.173919 -117.014611 118 6044ft 117kts
21-Oct-20 11:52 33.146667 -116.984049 148 5010ft 128kts
21-Oct-20 11:53 33.114859 -116.962119 160 3325ft 103kts
21-Oct-20 11:54 33.087455 -116.946755 142 2621ft 95kts
21-Oct-20 11:55 33.073526 -116.920440 109 2272ft 82kts
21-Oct-20 11:56 33.062687 -116.898293 166 2591ft 81kts
21-Oct-20 11:57 33.041952 -116.894706 214 2188ft 76kts
21-Oct-20 11:59 33.038671 -116.911906 281 1392ft 20kts
21-Oct-20 12:00 33.039408 -116.911965 94 1392ft 4kts
21-Oct-20 12:01 33.040216 -116.911386 93 1392ft 0kts
21-Oct-20 12:02 33.040216 -116.911386 93 1392ft 0kts
21-Oct-20 12:03 33.040216 -116.911386 93 1392ft 0kts

Navigation Log

Ident Type
Flight plan parsing failed, navigation log unavailable